No particular awareness of the weather is required.    There are no Weather-warnings


Meteo18 Weather Cam more information Meteo18 Weather Cam


Thunder radar more information blitzortung!


Rain radar more information rain snow radar


Visit our other weather sites:

Template documentation
and downloads

And another site



Weather Underground History page Text

Daily Summary for July 8, 2017 Units:  Both    English   Metric
« Previous Day
Next Day »
Daily Weekly Monthly Yearly Custom
  High: Low: Average:
Temperature: 88.5 °F /  31.4 °C 67.5 °F /  19.7 °C 77.7 °F /  25.4 °C
Dew Point: 66.9 °F /  19.4 °C 58.6 °F /  14.8 °C 63.9 °F /  17.7 °C
Humidity: 89 % 43 % 65 %
Wind Speed: 13 mph /  20.9 km/h - 3.2 mph /  5.1 km/h
Wind Gust: 25 mph /  40.2 km/h - -
Wind:- - SSE
Pressure: 30.1 in /  1019.2 hPa 30 in /  1014.8 hPa -
Precipitation: 0.06 in /  1.5 mm    
Historical Graphs
 
 
Tabular Data for July 8, 2017
Time Temperature Dew Point Pressure Wind Wind Speed Wind Gust Humidity Rainfall Rate (Hourly)
00:02 73.2 °F /  22.9 °C 66 °F /  18.9 °C 30.1 in /  1018.5 hPa Calm     78 % 0 in /  0.0 mm
00:07 73.2 °F /  22.9 °C 66 °F /  18.9 °C 30.1 in /  1018.5 hPa Calm     78 % 0 in /  0.0 mm
00:12 73 °F /  22.8 °C 65.8 °F /  18.8 °C 30.1 in /  1018.5 hPa Calm     78 % 0 in /  0.0 mm
00:17 72.7 °F /  22.6 °C 65.8 °F /  18.8 °C 30.1 in /  1018.5 hPa Calm     79 % 0 in /  0.0 mm
00:22 72.3 °F /  22.4 °C 65.8 °F /  18.8 °C 30.1 in /  1018.5 hPa Calm     80 % 0 in /  0.0 mm
00:32 71.4 °F /  21.9 °C 65.3 °F /  18.5 °C 30.1 in /  1018.5 hPa NNE 1 mph /  1.6 km/h 3 mph /  4.8 km/h 81 % 0 in /  0.0 mm
00:42 72.3 °F /  22.4 °C 65.8 °F /  18.8 °C 30.1 in /  1018.5 hPa Calm   3 mph /  4.8 km/h 80 % 0 in /  0.0 mm
00:47 72.3 °F /  22.4 °C 65.5 °F /  18.6 °C 30.1 in /  1018.5 hPa Calm   3 mph /  4.8 km/h 79 % 0 in /  0.0 mm
00:52 72 °F /  22.2 °C 65.5 °F /  18.6 °C 30.1 in /  1018.5 hPa Calm   3 mph /  4.8 km/h 80 % 0 in /  0.0 mm
00:57 71.8 °F /  22.1 °C 65.3 °F /  18.5 °C 30.1 in /  1018.2 hPa Calm   2 mph /  3.2 km/h 80 % 0 in /  0.0 mm
01:02 71.6 °F /  22.0 °C 65.5 °F /  18.6 °C 30.1 in /  1018.2 hPa Calm   1 mph /  1.6 km/h 81 % 0 in /  0.0 mm
01:07 71.4 °F /  21.9 °C 65.3 °F /  18.5 °C 30.1 in /  1018.5 hPa Calm     81 % 0 in /  0.0 mm
01:12 71.2 °F /  21.8 °C 65.1 °F /  18.4 °C 30.1 in /  1018.2 hPa Calm     81 % 0 in /  0.0 mm
01:17 71.1 °F /  21.7 °C 65.3 °F /  18.5 °C 30.1 in /  1018.2 hPa Calm     82 % 0 in /  0.0 mm
01:22 70.7 °F /  21.5 °C 64.9 °F /  18.3 °C 30.1 in /  1018.2 hPa Calm     82 % 0 in /  0.0 mm
01:27 70.3 °F /  21.3 °C 64.9 °F /  18.3 °C 30.1 in /  1018.2 hPa Calm     83 % 0 in /  0.0 mm
01:32 70.3 °F /  21.3 °C 64.9 °F /  18.3 °C 30.1 in /  1018.2 hPa West 2 mph /  3.2 km/h   83 % 0 in /  0.0 mm
01:37 70 °F /  21.1 °C 64.9 °F /  18.3 °C 30.1 in /  1018.2 hPa North 1 mph /  1.6 km/h 3 mph /  4.8 km/h 84 % 0 in /  0.0 mm
01:42 70 °F /  21.1 °C 65.3 °F /  18.5 °C 30.1 in /  1018.2 hPa North 1 mph /  1.6 km/h 3 mph /  4.8 km/h 85 % 0 in /  0.0 mm
01:47 70 °F /  21.1 °C 65.3 °F /  18.5 °C 30.1 in /  1018.2 hPa Calm   3 mph /  4.8 km/h 85 % 0 in /  0.0 mm
01:52 70.2 °F /  21.2 °C 65.1 °F /  18.4 °C 30.1 in /  1018.2 hPa Calm   2 mph /  3.2 km/h 84 % 0 in /  0.0 mm
02:02 70.3 °F /  21.3 °C 64.6 °F /  18.1 °C 30.1 in /  1018.2 hPa Calm   1 mph /  1.6 km/h 82 % 0 in /  0.0 mm
02:07 70 °F /  21.1 °C 64.6 °F /  18.1 °C 30.1 in /  1018.2 hPa Calm   1 mph /  1.6 km/h 83 % 0 in /  0.0 mm
02:12 70 °F /  21.1 °C 64.9 °F /  18.3 °C 30.1 in /  1018.2 hPa North 4 mph /  6.4 km/h 4 mph /  6.4 km/h 84 % 0 in /  0.0 mm
02:17 70.2 °F /  21.2 °C 65.1 °F /  18.4 °C 30.1 in /  1018.2 hPa NNW 1 mph /  1.6 km/h 4 mph /  6.4 km/h 84 % 0 in /  0.0 mm
02:22 70.5 °F /  21.4 °C 65.1 °F /  18.4 °C 30.1 in /  1018.2 hPa NW 1 mph /  1.6 km/h 4 mph /  6.4 km/h 83 % 0 in /  0.0 mm
02:27 70.9 °F /  21.6 °C 65.1 °F /  18.4 °C 30.1 in /  1018.2 hPa Calm   4 mph /  6.4 km/h 82 % 0 in /  0.0 mm
02:32 70.3 °F /  21.3 °C 64.6 °F /  18.1 °C 30.1 in /  1018.2 hPa WNW 1 mph /  1.6 km/h 4 mph /  6.4 km/h 82 % 0 in /  0.0 mm
02:42 70 °F /  21.1 °C 64.9 °F /  18.3 °C 30.1 in /  1018.2 hPa North 2 mph /  3.2 km/h 2 mph /  3.2 km/h 84 % 0 in /  0.0 mm
02:47 70.2 °F /  21.2 °C 64.8 °F /  18.2 °C 30.1 in /  1018.2 hPa North 2 mph /  3.2 km/h 2 mph /  3.2 km/h 83 % 0 in /  0.0 mm
02:52 70.5 °F /  21.4 °C 64.8 °F /  18.2 °C 30.1 in /  1018.2 hPa NNW 1 mph /  1.6 km/h 3 mph /  4.8 km/h 82 % 0 in /  0.0 mm
02:57 70.7 °F /  21.5 °C 64.9 °F /  18.3 °C 30.1 in /  1018.2 hPa Calm   3 mph /  4.8 km/h 82 % 0 in /  0.0 mm
03:02 70.2 °F /  21.2 °C 64 °F /  17.8 °C 30.1 in /  1018.2 hPa Calm   3 mph /  4.8 km/h 81 % 0 in /  0.0 mm
03:07 69.3 °F /  20.7 °C 63.9 °F /  17.7 °C 30.1 in /  1018.5 hPa Calm   2 mph /  3.2 km/h 83 % 0 in /  0.0 mm
03:12 68.9 °F /  20.5 °C 64.2 °F /  17.9 °C 30.1 in /  1018.5 hPa Calm   2 mph /  3.2 km/h 85 % 0 in /  0.0 mm
03:17 68.5 °F /  20.3 °C 63.9 °F /  17.7 °C 30.1 in /  1018.5 hPa Calm   2 mph /  3.2 km/h 85 % 0 in /  0.0 mm
03:22 68.4 °F /  20.2 °C 63.7 °F /  17.6 °C 30.1 in /  1018.5 hPa Calm   2 mph /  3.2 km/h 85 % 0 in /  0.0 mm
03:27 68.2 °F /  20.1 °C 63.9 °F /  17.7 °C 30.1 in /  1018.2 hPa Calm   1 mph /  1.6 km/h 86 % 0 in /  0.0 mm
03:32 67.6 °F /  19.8 °C 63.7 °F /  17.6 °C 30.1 in /  1018.5 hPa Calm   1 mph /  1.6 km/h 87 % 0 in /  0.0 mm
03:37 67.6 °F /  19.8 °C 63.7 °F /  17.6 °C 30.1 in /  1018.5 hPa Calm   1 mph /  1.6 km/h 87 % 0 in /  0.0 mm
03:42 67.5 °F /  19.7 °C 63.9 °F /  17.7 °C 30.1 in /  1018.5 hPa Calm   3 mph /  4.8 km/h 88 % 0 in /  0.0 mm
03:47 67.6 °F /  19.8 °C 64 °F /  17.8 °C 30.1 in /  1018.5 hPa Calm   3 mph /  4.8 km/h 88 % 0 in /  0.0 mm
03:52 67.6 °F /  19.8 °C 64 °F /  17.8 °C 30.1 in /  1018.2 hPa WNW 2 mph /  3.2 km/h 3 mph /  4.8 km/h 88 % 0 in /  0.0 mm
03:57 67.6 °F /  19.8 °C 64 °F /  17.8 °C 30.1 in /  1018.5 hPa NNW 2 mph /  3.2 km/h 2 mph /  3.2 km/h 88 % 0 in /  0.0 mm
04:02 68 °F /  20.0 °C 64 °F /  17.8 °C 30.1 in /  1018.2 hPa Calm   4 mph /  6.4 km/h 87 % 0 in /  0.0 mm
04:07 68.4 °F /  20.2 °C 64 °F /  17.8 °C 30.1 in /  1018.2 hPa Calm   4 mph /  6.4 km/h 86 % 0 in /  0.0 mm
04:12 68.4 °F /  20.2 °C 64 °F /  17.8 °C 30.1 in /  1018.2 hPa WNW 1 mph /  1.6 km/h 4 mph /  6.4 km/h 86 % 0 in /  0.0 mm
04:17 68.5 °F /  20.3 °C 64.2 °F /  17.9 °C 30.1 in /  1018.2 hPa NNW 3 mph /  4.8 km/h 3 mph /  4.8 km/h 86 % 0 in /  0.0 mm
04:22 69.3 °F /  20.7 °C 64.2 °F /  17.9 °C 30.1 in /  1018.2 hPa North 2 mph /  3.2 km/h 3 mph /  4.8 km/h 84 % 0 in /  0.0 mm
04:27 69.1 °F /  20.6 °C 64 °F /  17.8 °C 30.1 in /  1017.8 hPa NNW 1 mph /  1.6 km/h 4 mph /  6.4 km/h 84 % 0 in /  0.0 mm
04:32 68.9 °F /  20.5 °C 63.9 °F /  17.7 °C 30.1 in /  1017.8 hPa NNW 1 mph /  1.6 km/h 4 mph /  6.4 km/h 84 % 0 in /  0.0 mm
04:42 68.9 °F /  20.5 °C 63.9 °F /  17.7 °C 30.1 in /  1017.8 hPa NNW 2 mph /  3.2 km/h 2 mph /  3.2 km/h 84 % 0 in /  0.0 mm
04:47 69.3 °F /  20.7 °C 63.9 °F /  17.7 °C 30.1 in /  1017.8 hPa Calm   3 mph /  4.8 km/h 83 % 0 in /  0.0 mm
04:52 69.4 °F /  20.8 °C 64 °F /  17.8 °C 30.1 in /  1018.2 hPa Calm   3 mph /  4.8 km/h 83 % 0 in /  0.0 mm
04:57 69.4 °F /  20.8 °C 64 °F /  17.8 °C 30.1 in /  1018.2 hPa WNW 1 mph /  1.6 km/h 3 mph /  4.8 km/h 83 % 0 in /  0.0 mm
05:02 69.4 °F /  20.8 °C 64 °F /  17.8 °C 30.1 in /  1018.2 hPa NW 2 mph /  3.2 km/h 4 mph /  6.4 km/h 83 % 0 in /  0.0 mm
05:12 69.3 °F /  20.7 °C 63.9 °F /  17.7 °C 30.1 in /  1018.2 hPa NW 1 mph /  1.6 km/h 4 mph /  6.4 km/h 83 % 0 in /  0.0 mm
05:17 69.3 °F /  20.7 °C 63.9 °F /  17.7 °C 30.1 in /  1018.2 hPa WNW 1 mph /  1.6 km/h 4 mph /  6.4 km/h 83 % 0 in /  0.0 mm
05:22 69.1 °F /  20.6 °C 64 °F /  17.8 °C 30.1 in /  1018.2 hPa WNW 1 mph /  1.6 km/h 4 mph /  6.4 km/h 84 % 0 in /  0.0 mm
05:27 68.9 °F /  20.5 °C 63.9 °F /  17.7 °C 30.1 in /  1018.2 hPa WNW 2 mph /  3.2 km/h 3 mph /  4.8 km/h 84 % 0 in /  0.0 mm
05:37 68.5 °F /  20.3 °C 63.9 °F /  17.7 °C 30.1 in /  1017.8 hPa NW 2 mph /  3.2 km/h 4 mph /  6.4 km/h 85 % 0 in /  0.0 mm
05:42 68.4 °F /  20.2 °C 63.7 °F /  17.6 °C 30.1 in /  1017.8 hPa Calm   4 mph /  6.4 km/h 85 % 0 in /  0.0 mm
05:47 68.2 °F /  20.1 °C 63.9 °F /  17.7 °C 30.1 in /  1017.8 hPa Calm   4 mph /  6.4 km/h 86 % 0 in /  0.0 mm
05:52 67.8 °F /  19.9 °C 63.5 °F /  17.5 °C 30.1 in /  1017.8 hPa NW 1 mph /  1.6 km/h 3 mph /  4.8 km/h 86 % 0 in /  0.0 mm
06:02 67.6 °F /  19.8 °C 63.7 °F /  17.6 °C 30.1 in /  1017.8 hPa NNW 2 mph /  3.2 km/h 3 mph /  4.8 km/h 87 % 0 in /  0.0 mm
06:12 67.5 °F /  19.7 °C 63.5 °F /  17.5 °C 30.1 in /  1017.8 hPa Calm   3 mph /  4.8 km/h 87 % 0 in /  0.0 mm
06:17 67.5 °F /  19.7 °C 63.5 °F /  17.5 °C 30.1 in /  1017.8 hPa NW 3 mph /  4.8 km/h 3 mph /  4.8 km/h 87 % 0 in /  0.0 mm
06:22 67.5 °F /  19.7 °C 63.5 °F /  17.5 °C 30.1 in /  1017.8 hPa NW 3 mph /  4.8 km/h 3 mph /  4.8 km/h 87 % 0 in /  0.0 mm
06:27 67.5 °F /  19.7 °C 63.1 °F /  17.3 °C 30.1 in /  1017.8 hPa North 1 mph /  1.6 km/h 3 mph /  4.8 km/h 86 % 0 in /  0.0 mm
06:32 67.5 °F /  19.7 °C 63.1 °F /  17.3 °C 30.1 in /  1017.8 hPa WNW 2 mph /  3.2 km/h 3 mph /  4.8 km/h 86 % 0 in /  0.0 mm
06:37 67.5 °F /  19.7 °C 63.1 °F /  17.3 °C 30.1 in /  1017.8 hPa West 1 mph /  1.6 km/h 3 mph /  4.8 km/h 86 % 0 in /  0.0 mm
06:42 67.5 °F /  19.7 °C 63.1 °F /  17.3 °C 30.1 in /  1017.8 hPa Calm   3 mph /  4.8 km/h 86 % 0 in /  0.0 mm
06:47 67.6 °F /  19.8 °C 63.3 °F /  17.4 °C 30.1 in /  1017.8 hPa Calm   3 mph /  4.8 km/h 86 % 0 in /  0.0 mm
06:52 67.8 °F /  19.9 °C 63.1 °F /  17.3 °C 30.1 in /  1017.8 hPa Calm   3 mph /  4.8 km/h 85 % 0 in /  0.0 mm
06:57 68 °F /  20.0 °C 63.3 °F /  17.4 °C 30.1 in /  1017.8 hPa Calm   3 mph /  4.8 km/h 85 % 0 in /  0.0 mm
07:02 68.4 °F /  20.2 °C 63.7 °F /  17.6 °C 30.1 in /  1018.2 hPa NW 1 mph /  1.6 km/h 3 mph /  4.8 km/h 85 % 0 in /  0.0 mm
07:12 68.7 °F /  20.4 °C 63.7 °F /  17.6 °C 30.1 in /  1017.8 hPa Calm   3 mph /  4.8 km/h 84 % 0 in /  0.0 mm
07:17 68.9 °F /  20.5 °C 63.9 °F /  17.7 °C 30.1 in /  1018.2 hPa Calm   3 mph /  4.8 km/h 84 % 0 in /  0.0 mm
07:22 69.3 °F /  20.7 °C 64.2 °F /  17.9 °C 30.1 in /  1018.2 hPa Calm   3 mph /  4.8 km/h 84 % 0 in /  0.0 mm
07:32 70.2 °F /  21.2 °C 64.8 °F /  18.2 °C 30.1 in /  1018.2 hPa NNE 2 mph /  3.2 km/h 5 mph /  8.0 km/h 83 % 0 in /  0.0 mm
07:37 70.3 °F /  21.3 °C 64.6 °F /  18.1 °C 30.1 in /  1018.2 hPa ENE 1 mph /  1.6 km/h 5 mph /  8.0 km/h 82 % 0 in /  0.0 mm
07:42 70.7 °F /  21.5 °C 64.6 °F /  18.1 °C 30.1 in /  1018.2 hPa North 2 mph /  3.2 km/h 7 mph /  11.3 km/h 81 % 0 in /  0.0 mm
07:47 70.9 °F /  21.6 °C 64.8 °F /  18.2 °C 30.1 in /  1018.2 hPa North 4 mph /  6.4 km/h 7 mph /  11.3 km/h 81 % 0 in /  0.0 mm
07:57 71.6 °F /  22.0 °C 64.8 °F /  18.2 °C 30.1 in /  1018.2 hPa North 2 mph /  3.2 km/h 8 mph /  12.9 km/h 79 % 0 in /  0.0 mm
08:02 71.8 °F /  22.1 °C 64.9 °F /  18.3 °C 30.1 in /  1018.2 hPa NNE 2 mph /  3.2 km/h 8 mph /  12.9 km/h 79 % 0 in /  0.0 mm
08:07 72.1 °F /  22.3 °C 64.9 °F /  18.3 °C 30.1 in /  1018.2 hPa Calm   7 mph /  11.3 km/h 78 % 0 in /  0.0 mm
08:12 72.7 °F /  22.6 °C 65.1 °F /  18.4 °C 30.1 in /  1018.5 hPa NNW 3 mph /  4.8 km/h 7 mph /  11.3 km/h 77 % 0 in /  0.0 mm
08:17 72.9 °F /  22.7 °C 65.3 °F /  18.5 °C 30.1 in /  1018.5 hPa Calm   9 mph /  14.5 km/h 77 % 0 in /  0.0 mm
08:22 73.2 °F /  22.9 °C 65.1 °F /  18.4 °C 30.1 in /  1018.5 hPa NNW 2 mph /  3.2 km/h 9 mph /  14.5 km/h 76 % 0 in /  0.0 mm
08:32 73.9 °F /  23.3 °C 65.1 °F /  18.4 °C 30.1 in /  1018.5 hPa NNW 5 mph /  8.0 km/h 8 mph /  12.9 km/h 74 % 0 in /  0.0 mm
08:37 74.3 °F /  23.5 °C 65.1 °F /  18.4 °C 30.1 in /  1018.5 hPa NE 7 mph /  11.3 km/h 8 mph /  12.9 km/h 73 % 0 in /  0.0 mm
08:42 74.5 °F /  23.6 °C 64.9 °F /  18.3 °C 30.1 in /  1018.5 hPa NNE 3 mph /  4.8 km/h 8 mph /  12.9 km/h 72 % 0 in /  0.0 mm
08:47 74.7 °F /  23.7 °C 65.1 °F /  18.4 °C 30.1 in /  1018.5 hPa NE 4 mph /  6.4 km/h 9 mph /  14.5 km/h 72 % 0 in /  0.0 mm
08:52 74.7 °F /  23.7 °C 64.6 °F /  18.1 °C 30.1 in /  1018.5 hPa NNE 4 mph /  6.4 km/h 10 mph /  16.1 km/h 71 % 0 in /  0.0 mm
08:57 74.5 °F /  23.6 °C 64.4 °F /  18.0 °C 30.1 in /  1018.5 hPa NNE 4 mph /  6.4 km/h 10 mph /  16.1 km/h 71 % 0 in /  0.0 mm
09:02 74.5 °F /  23.6 °C 64.4 °F /  18.0 °C 30.1 in /  1018.5 hPa NE 6 mph /  9.7 km/h 10 mph /  16.1 km/h 71 % 0 in /  0.0 mm
09:12 75.6 °F /  24.2 °C 64.8 °F /  18.2 °C 30.1 in /  1018.5 hPa NNE 3 mph /  4.8 km/h 9 mph /  14.5 km/h 69 % 0 in /  0.0 mm
09:17 75.6 °F /  24.2 °C 64.2 °F /  17.9 °C 30.1 in /  1018.5 hPa ENE 8 mph /  12.9 km/h 11 mph /  17.7 km/h 68 % 0 in /  0.0 mm
09:22 75.7 °F /  24.3 °C 64.4 °F /  18.0 °C 30.1 in /  1018.5 hPa North 2 mph /  3.2 km/h 11 mph /  17.7 km/h 68 % 0 in /  0.0 mm
09:32 75.7 °F /  24.3 °C 64 °F /  17.8 °C 30.1 in /  1018.8 hPa NNE 8 mph /  12.9 km/h 10 mph /  16.1 km/h 67 % 0 in /  0.0 mm
09:42 75.6 °F /  24.2 °C 63.9 °F /  17.7 °C 30.1 in /  1018.8 hPa NNE 5 mph /  8.0 km/h 10 mph /  16.1 km/h 67 % 0 in /  0.0 mm
09:47 75.7 °F /  24.3 °C 64 °F /  17.8 °C 30.1 in /  1018.8 hPa NNW 5 mph /  8.0 km/h 9 mph /  14.5 km/h 67 % 0 in /  0.0 mm
09:52 75.7 °F /  24.3 °C 64 °F /  17.8 °C 30.1 in /  1018.8 hPa NNE 1 mph /  1.6 km/h 8 mph /  12.9 km/h 67 % 0 in /  0.0 mm
09:57 75.9 °F /  24.4 °C 64.2 °F /  17.9 °C 30.1 in /  1018.8 hPa NNW 5 mph /  8.0 km/h 8 mph /  12.9 km/h 67 % 0 in /  0.0 mm
10:02 76.3 °F /  24.6 °C 64 °F /  17.8 °C 30.1 in /  1018.8 hPa North 3 mph /  4.8 km/h 8 mph /  12.9 km/h 66 % 0 in /  0.0 mm
10:12 76.5 °F /  24.7 °C 64.2 °F /  17.9 °C 30.1 in /  1018.8 hPa NNE 6 mph /  9.7 km/h 7 mph /  11.3 km/h 66 % 0 in /  0.0 mm
10:17 76.6 °F /  24.8 °C 64.4 °F /  18.0 °C 30.1 in /  1018.8 hPa NNW 3 mph /  4.8 km/h 7 mph /  11.3 km/h 66 % 0 in /  0.0 mm
10:22 76.8 °F /  24.9 °C 64.2 °F /  17.9 °C 30.1 in /  1018.8 hPa NNW 3 mph /  4.8 km/h 7 mph /  11.3 km/h 65 % 0 in /  0.0 mm
10:27 77.4 °F /  25.2 °C 64.8 °F /  18.2 °C 30.1 in /  1018.8 hPa NNE 4 mph /  6.4 km/h 8 mph /  12.9 km/h 65 % 0 in /  0.0 mm
10:32 78.1 °F /  25.6 °C 64.9 °F /  18.3 °C 30.1 in /  1018.8 hPa East 2 mph /  3.2 km/h 9 mph /  14.5 km/h 64 % 0 in /  0.0 mm
10:42 79.3 °F /  26.3 °C 65.1 °F /  18.4 °C 30.1 in /  1018.8 hPa NW 1 mph /  1.6 km/h 9 mph /  14.5 km/h 62 % 0 in /  0.0 mm
10:52 80.1 °F /  26.7 °C 65.5 °F /  18.6 °C 30.1 in /  1018.8 hPa East 1 mph /  1.6 km/h 6 mph /  9.7 km/h 61 % 0 in /  0.0 mm
10:57 80.1 °F /  26.7 °C 65.5 °F /  18.6 °C 30.1 in /  1019.2 hPa North 3 mph /  4.8 km/h 10 mph /  16.1 km/h 61 % 0 in /  0.0 mm
11:02 79.7 °F /  26.5 °C 65.5 °F /  18.6 °C 30.1 in /  1019.2 hPa NW 2 mph /  3.2 km/h 10 mph /  16.1 km/h 62 % 0 in /  0.0 mm
11:12 80.2 °F /  26.8 °C 66 °F /  18.9 °C 30.1 in /  1018.8 hPa North 2 mph /  3.2 km/h 6 mph /  9.7 km/h 62 % 0 in /  0.0 mm
11:22 81.3 °F /  27.4 °C 66.6 °F /  19.2 °C 30.1 in /  1018.8 hPa East 1 mph /  1.6 km/h 8 mph /  12.9 km/h 61 % 0 in /  0.0 mm
11:32 82.6 °F /  28.1 °C 66.4 °F /  19.1 °C 30.1 in /  1018.8 hPa NNW 1 mph /  1.6 km/h 8 mph /  12.9 km/h 58 % 0 in /  0.0 mm
11:37 82.9 °F /  28.3 °C 66.2 °F /  19.0 °C 30.1 in /  1019.2 hPa NNW 3 mph /  4.8 km/h 8 mph /  12.9 km/h 57 % 0 in /  0.0 mm
11:42 83.5 °F /  28.6 °C 66.2 °F /  19.0 °C 30.1 in /  1018.8 hPa NNE 5 mph /  8.0 km/h 8 mph /  12.9 km/h 56 % 0 in /  0.0 mm
11:47 83.8 °F /  28.8 °C 66 °F /  18.9 °C 30.1 in /  1018.8 hPa ENE 5 mph /  8.0 km/h 9 mph /  14.5 km/h 55 % 0 in /  0.0 mm
12:02 84.4 °F /  29.1 °C 66.4 °F /  19.1 °C 30.1 in /  1018.8 hPa NNE 4 mph /  6.4 km/h 10 mph /  16.1 km/h 55 % 0 in /  0.0 mm
12:07 84.9 °F /  29.4 °C 65.8 °F /  18.8 °C 30.1 in /  1018.8 hPa WNW 3 mph /  4.8 km/h 10 mph /  16.1 km/h 53 % 0 in /  0.0 mm
12:12 84.9 °F /  29.4 °C 66.9 °F /  19.4 °C 30.1 in /  1018.8 hPa NE 4 mph /  6.4 km/h 9 mph /  14.5 km/h 55 % 0 in /  0.0 mm
12:17 85.8 °F /  29.9 °C 66.2 °F /  19.0 °C 30.1 in /  1018.8 hPa NE 6 mph /  9.7 km/h 9 mph /  14.5 km/h 52 % 0 in /  0.0 mm
12:22 86 °F /  30.0 °C 66.4 °F /  19.1 °C 30.1 in /  1018.8 hPa ENE 2 mph /  3.2 km/h 10 mph /  16.1 km/h 52 % 0 in /  0.0 mm
12:27 86.2 °F /  30.1 °C 66.6 °F /  19.2 °C 30.1 in /  1018.8 hPa West 4 mph /  6.4 km/h 10 mph /  16.1 km/h 52 % 0 in /  0.0 mm
12:32 86.5 °F /  30.3 °C 65.1 °F /  18.4 °C 30.1 in /  1018.8 hPa WSW 3 mph /  4.8 km/h 10 mph /  16.1 km/h 49 % 0 in /  0.0 mm
12:42 87.6 °F /  30.9 °C 65.5 °F /  18.6 °C 30.1 in /  1018.8 hPa NNE 6 mph /  9.7 km/h 13 mph /  20.9 km/h 48 % 0 in /  0.0 mm
12:47 87.8 °F /  31.0 °C 65.1 °F /  18.4 °C 30.1 in /  1018.5 hPa NNW 6 mph /  9.7 km/h 13 mph /  20.9 km/h 47 % 0 in /  0.0 mm
12:52 87.4 °F /  30.8 °C 65.3 °F /  18.5 °C 30.1 in /  1018.5 hPa WNW 1 mph /  1.6 km/h 13 mph /  20.9 km/h 48 % 0 in /  0.0 mm
13:02 87.1 °F /  30.6 °C 65.7 °F /  18.7 °C 30.1 in /  1018.5 hPa East 4 mph /  6.4 km/h 12 mph /  19.3 km/h 49 % 0 in /  0.0 mm
13:07 86.5 °F /  30.3 °C 65.1 °F /  18.4 °C 30.1 in /  1018.5 hPa NNE 10 mph /  16.1 km/h 14 mph /  22.5 km/h 49 % 0 in /  0.0 mm
13:12 86.5 °F /  30.3 °C 65.1 °F /  18.4 °C 30.1 in /  1018.5 hPa NNE 5 mph /  8.0 km/h 14 mph /  22.5 km/h 49 % 0 in /  0.0 mm
13:17 86.4 °F /  30.2 °C 65.5 °F /  18.6 °C 30.1 in /  1018.5 hPa NNE 6 mph /  9.7 km/h 14 mph /  22.5 km/h 50 % 0 in /  0.0 mm
13:22 86.9 °F /  30.5 °C 65.5 °F /  18.6 °C 30.1 in /  1018.5 hPa WNW 6 mph /  9.7 km/h 14 mph /  22.5 km/h 49 % 0 in /  0.0 mm
13:32 85.6 °F /  29.8 °C 64.2 °F /  17.9 °C 30.1 in /  1018.2 hPa North 8 mph /  12.9 km/h 14 mph /  22.5 km/h 49 % 0 in /  0.0 mm
13:37 85.6 °F /  29.8 °C 64.2 °F /  17.9 °C 30.1 in /  1018.2 hPa NE 5 mph /  8.0 km/h 14 mph /  22.5 km/h 49 % 0 in /  0.0 mm
13:47 85.3 °F /  29.6 °C 64 °F /  17.8 °C 30.1 in /  1018.2 hPa NNW 9 mph /  14.5 km/h 13 mph /  20.9 km/h 49 % 0 in /  0.0 mm
13:52 85.3 °F /  29.6 °C 64 °F /  17.8 °C 30.1 in /  1017.8 hPa NNW 6 mph /  9.7 km/h 16 mph /  25.7 km/h 49 % 0 in /  0.0 mm
13:57 85.3 °F /  29.6 °C 64 °F /  17.8 °C 30.1 in /  1017.8 hPa North 8 mph /  12.9 km/h 16 mph /  25.7 km/h 49 % 0 in /  0.0 mm
14:02 84.7 °F /  29.3 °C 63.5 °F /  17.5 °C 30.1 in /  1017.8 hPa North 8 mph /  12.9 km/h 14 mph /  22.5 km/h 49 % 0 in /  0.0 mm
14:12 84.7 °F /  29.3 °C 64 °F /  17.8 °C 30.1 in /  1017.8 hPa NNE 2 mph /  3.2 km/h 13 mph /  20.9 km/h 50 % 0 in /  0.0 mm
14:22 84.9 °F /  29.4 °C 63.7 °F /  17.6 °C 30.1 in /  1017.8 hPa NNE 8 mph /  12.9 km/h 11 mph /  17.7 km/h 49 % 0 in /  0.0 mm
14:27 84.7 °F /  29.3 °C 64 °F /  17.8 °C 30.1 in /  1017.8 hPa NE 3 mph /  4.8 km/h 12 mph /  19.3 km/h 50 % 0 in /  0.0 mm
14:32 85.1 °F /  29.5 °C 63.9 °F /  17.7 °C 30.1 in /  1017.8 hPa NNE 5 mph /  8.0 km/h 12 mph /  19.3 km/h 49 % 0 in /  0.0 mm
14:37 85.3 °F /  29.6 °C 64 °F /  17.8 °C 30.1 in /  1017.8 hPa NE 1 mph /  1.6 km/h 12 mph /  19.3 km/h 49 % 0 in /  0.0 mm
14:42 85.5 °F /  29.7 °C 63 °F /  17.2 °C 30.1 in /  1017.8 hPa NW 4 mph /  6.4 km/h 11 mph /  17.7 km/h 47 % 0 in /  0.0 mm
14:47 85.3 °F /  29.6 °C 64.6 °F /  18.1 °C 30.1 in /  1017.8 hPa NE 4 mph /  6.4 km/h 14 mph /  22.5 km/h 50 % 0 in /  0.0 mm
14:52 85.5 °F /  29.7 °C 64 °F /  17.8 °C 30.1 in /  1017.8 hPa ENE 4 mph /  6.4 km/h 14 mph /  22.5 km/h 49 % 0 in /  0.0 mm
14:57 85.3 °F /  29.6 °C 64.6 °F /  18.1 °C 30.1 in /  1017.8 hPa NW 4 mph /  6.4 km/h 12 mph /  19.3 km/h 50 % 0 in /  0.0 mm
15:02 85.6 °F /  29.8 °C 63.7 °F /  17.6 °C 30.1 in /  1017.5 hPa North 1 mph /  1.6 km/h 12 mph /  19.3 km/h 48 % 0 in /  0.0 mm
15:07 85.5 °F /  29.7 °C 63.5 °F /  17.5 °C 30.1 in /  1017.5 hPa NE 8 mph /  12.9 km/h 12 mph /  19.3 km/h 48 % 0 in /  0.0 mm
15:12 85.3 °F /  29.6 °C 63.3 °F /  17.4 °C 30.1 in /  1017.5 hPa NNE 2 mph /  3.2 km/h 10 mph /  16.1 km/h 48 % 0 in /  0.0 mm
15:17 85.6 °F /  29.8 °C 63.7 °F /  17.6 °C 30.1 in /  1017.5 hPa NE 7 mph /  11.3 km/h 10 mph /  16.1 km/h 48 % 0 in /  0.0 mm
15:22 85.5 °F /  29.7 °C 63.5 °F /  17.5 °C 30.1 in /  1017.5 hPa NNE 4 mph /  6.4 km/h 11 mph /  17.7 km/h 48 % 0 in /  0.0 mm
15:27 85.3 °F /  29.6 °C 64 °F /  17.8 °C 30.1 in /  1017.5 hPa NNE 3 mph /  4.8 km/h 11 mph /  17.7 km/h 49 % 0 in /  0.0 mm
15:32 85.1 °F /  29.5 °C 63.9 °F /  17.7 °C 30.1 in /  1017.5 hPa NE 6 mph /  9.7 km/h 11 mph /  17.7 km/h 49 % 0 in /  0.0 mm
15:37 85.3 °F /  29.6 °C 64 °F /  17.8 °C 30.1 in /  1017.5 hPa NE 7 mph /  11.3 km/h 11 mph /  17.7 km/h 49 % 0 in /  0.0 mm
15:42 85.3 °F /  29.6 °C 63.3 °F /  17.4 °C 30 in /  1017.2 hPa NNW 5 mph /  8.0 km/h 10 mph /  16.1 km/h 48 % 0 in /  0.0 mm
15:47 85.6 °F /  29.8 °C 63.1 °F /  17.3 °C 30 in /  1017.2 hPa NNE 7 mph /  11.3 km/h 12 mph /  19.3 km/h 47 % 0 in /  0.0 mm
15:52 85.8 °F /  29.9 °C 63.9 °F /  17.7 °C 30 in /  1017.2 hPa ENE 8 mph /  12.9 km/h 12 mph /  19.3 km/h 48 % 0 in /  0.0 mm
16:02 86.7 °F /  30.4 °C 64 °F /  17.8 °C 30 in /  1017.2 hPa NE 7 mph /  11.3 km/h 10 mph /  16.1 km/h 47 % 0 in /  0.0 mm
16:07 87.1 °F /  30.6 °C 63.9 °F /  17.7 °C 30 in /  1016.8 hPa ENE 5 mph /  8.0 km/h 12 mph /  19.3 km/h 46 % 0 in /  0.0 mm
16:12 87.3 °F /  30.7 °C 64 °F /  17.8 °C 30 in /  1016.8 hPa NE 6 mph /  9.7 km/h 13 mph /  20.9 km/h 46 % 0 in /  0.0 mm
16:22 87.4 °F /  30.8 °C 64 °F /  17.8 °C 30 in /  1016.8 hPa NNW 6 mph /  9.7 km/h 13 mph /  20.9 km/h 46 % 0 in /  0.0 mm
16:27 87.8 °F /  31.0 °C 64.4 °F /  18.0 °C 30 in /  1016.8 hPa East 8 mph /  12.9 km/h 13 mph /  20.9 km/h 46 % 0 in /  0.0 mm
16:32 88 °F /  31.1 °C 63.3 °F /  17.4 °C 30 in /  1016.5 hPa NNE 11 mph /  17.7 km/h 11 mph /  17.7 km/h 44 % 0 in /  0.0 mm
16:37 88 °F /  31.1 °C 63.3 °F /  17.4 °C 30 in /  1016.8 hPa NE 8 mph /  12.9 km/h 13 mph /  20.9 km/h 44 % 0 in /  0.0 mm
16:42 88.2 °F /  31.2 °C 64.2 °F /  17.9 °C 30 in /  1016.5 hPa NNE 10 mph /  16.1 km/h 13 mph /  20.9 km/h 45 % 0 in /  0.0 mm
16:47 88.3 °F /  31.3 °C 63 °F /  17.2 °C 30 in /  1016.5 hPa ENE 7 mph /  11.3 km/h 13 mph /  20.9 km/h 43 % 0 in /  0.0 mm
16:52 88.2 °F /  31.2 °C 63.5 °F /  17.5 °C 30 in /  1016.5 hPa East 5 mph /  8.0 km/h 12 mph /  19.3 km/h 44 % 0 in /  0.0 mm
16:57 88.2 °F /  31.2 °C 62.8 °F /  17.1 °C 30 in /  1016.5 hPa NE 2 mph /  3.2 km/h 12 mph /  19.3 km/h 43 % 0 in /  0.0 mm
17:02 88.2 °F /  31.2 °C 62.8 °F /  17.1 °C 30 in /  1016.5 hPa NE 1 mph /  1.6 km/h 12 mph /  19.3 km/h 43 % 0 in /  0.0 mm
17:07 88.2 °F /  31.2 °C 62.8 °F /  17.1 °C 30 in /  1016.5 hPa NNW 3 mph /  4.8 km/h 11 mph /  17.7 km/h 43 % 0 in /  0.0 mm
17:12 88.2 °F /  31.2 °C 62.8 °F /  17.1 °C 30 in /  1016.5 hPa NE 6 mph /  9.7 km/h 12 mph /  19.3 km/h 43 % 0 in /  0.0 mm
17:17 87.8 °F /  31.0 °C 63.1 °F /  17.3 °C 30 in /  1016.5 hPa ENE 3 mph /  4.8 km/h 12 mph /  19.3 km/h 44 % 0 in /  0.0 mm
17:22 88 °F /  31.1 °C 63.3 °F /  17.4 °C 30 in /  1016.5 hPa NNE 2 mph /  3.2 km/h 12 mph /  19.3 km/h 44 % 0 in /  0.0 mm
17:32 88 °F /  31.1 °C 63.3 °F /  17.4 °C 30 in /  1016.5 hPa ENE 2 mph /  3.2 km/h 7 mph /  11.3 km/h 44 % 0 in /  0.0 mm
17:37 88.3 °F /  31.3 °C 63.7 °F /  17.6 °C 30 in /  1016.5 hPa East 2 mph /  3.2 km/h 8 mph /  12.9 km/h 44 % 0 in /  0.0 mm
17:42 88.2 °F /  31.2 °C 63.5 °F /  17.5 °C 30 in /  1016.5 hPa NE 3 mph /  4.8 km/h 8 mph /  12.9 km/h 44 % 0 in /  0.0 mm
17:47 88.3 °F /  31.3 °C 64.2 °F /  17.9 °C 30 in /  1016.1 hPa ENE 5 mph /  8.0 km/h 8 mph /  12.9 km/h 45 % 0 in /  0.0 mm
17:57 87.4 °F /  30.8 °C 63.5 °F /  17.5 °C 30 in /  1016.1 hPa East 5 mph /  8.0 km/h 8 mph /  12.9 km/h 45 % 0 in /  0.0 mm
18:02 87.3 °F /  30.7 °C 64 °F /  17.8 °C 30 in /  1016.1 hPa NE 7 mph /  11.3 km/h 8 mph /  12.9 km/h 46 % 0 in /  0.0 mm
18:07 87.1 °F /  30.6 °C 63.9 °F /  17.7 °C 30 in /  1016.1 hPa ENE 6 mph /  9.7 km/h 8 mph /  12.9 km/h 46 % 0 in /  0.0 mm
18:12 86.7 °F /  30.4 °C 63.5 °F /  17.5 °C 30 in /  1015.8 hPa NE 7 mph /  11.3 km/h 9 mph /  14.5 km/h 46 % 0 in /  0.0 mm
18:17 87.3 °F /  30.7 °C 64 °F /  17.8 °C 30 in /  1015.8 hPa ENE 7 mph /  11.3 km/h 9 mph /  14.5 km/h 46 % 0 in /  0.0 mm
18:27 87.4 °F /  30.8 °C 62.8 °F /  17.1 °C 30 in /  1015.5 hPa NE 2 mph /  3.2 km/h 9 mph /  14.5 km/h 44 % 0 in /  0.0 mm
18:32 87.6 °F /  30.9 °C 63 °F /  17.2 °C 30 in /  1015.5 hPa NE 1 mph /  1.6 km/h 7 mph /  11.3 km/h 44 % 0 in /  0.0 mm
18:37 88.2 °F /  31.2 °C 62.8 °F /  17.1 °C 30 in /  1015.1 hPa NE 2 mph /  3.2 km/h 6 mph /  9.7 km/h 43 % 0 in /  0.0 mm
18:42 88.3 °F /  31.3 °C 63 °F /  17.2 °C 30 in /  1015.1 hPa NNE 4 mph /  6.4 km/h 8 mph /  12.9 km/h 43 % 0 in /  0.0 mm
18:47 88.5 °F /  31.4 °C 63.1 °F /  17.3 °C 30 in /  1014.8 hPa East 5 mph /  8.0 km/h 11 mph /  17.7 km/h 43 % 0 in /  0.0 mm
18:52 88.2 °F /  31.2 °C 63.5 °F /  17.5 °C 30 in /  1014.8 hPa East 4 mph /  6.4 km/h 11 mph /  17.7 km/h 44 % 0 in /  0.0 mm
19:02 88.5 °F /  31.4 °C 63.9 °F /  17.7 °C 30 in /  1015.1 hPa NNE 4 mph /  6.4 km/h 11 mph /  17.7 km/h 44 % 0 in /  0.0 mm
19:07 88.5 °F /  31.4 °C 63.9 °F /  17.7 °C 30 in /  1015.5 hPa ENE 2 mph /  3.2 km/h 10 mph /  16.1 km/h 44 % 0 in /  0.0 mm
19:12 88 °F /  31.1 °C 63.3 °F /  17.4 °C 30 in /  1015.5 hPa NE 5 mph /  8.0 km/h 9 mph /  14.5 km/h 44 % 0 in /  0.0 mm
19:17 87.6 °F /  30.9 °C 63.7 °F /  17.6 °C 30 in /  1015.5 hPa NNE 13 mph /  20.9 km/h 14 mph /  22.5 km/h 45 % 0 in /  0.0 mm
19:22 87.4 °F /  30.8 °C 63.5 °F /  17.5 °C 30 in /  1015.5 hPa NE 5 mph /  8.0 km/h 15 mph /  24.1 km/h 45 % 0 in /  0.0 mm
19:27 87.3 °F /  30.7 °C 64 °F /  17.8 °C 30 in /  1015.5 hPa NNE 10 mph /  16.1 km/h 15 mph /  24.1 km/h 46 % 0 in /  0.0 mm
19:32 86.5 °F /  30.3 °C 63.3 °F /  17.4 °C 30 in /  1015.5 hPa NE 6 mph /  9.7 km/h 15 mph /  24.1 km/h 46 % 0 in /  0.0 mm
19:37 86.5 °F /  30.3 °C 63.9 °F /  17.7 °C 30 in /  1015.5 hPa NNW 3 mph /  4.8 km/h 13 mph /  20.9 km/h 47 % 0 in /  0.0 mm
19:42 86.5 °F /  30.3 °C 63.9 °F /  17.7 °C 30 in /  1015.5 hPa NNE 8 mph /  12.9 km/h 13 mph /  20.9 km/h 47 % 0 in /  0.0 mm
19:47 86 °F /  30.0 °C 63.5 °F /  17.5 °C 30 in /  1015.5 hPa NNE 9 mph /  14.5 km/h 13 mph /  20.9 km/h 47 % 0 in /  0.0 mm
19:52 85.5 °F /  29.7 °C 63.5 °F /  17.5 °C 30 in /  1015.1 hPa NE 13 mph /  20.9 km/h 13 mph /  20.9 km/h 48 % 0 in /  0.0 mm
19:57 85.3 °F /  29.6 °C 64 °F /  17.8 °C 30 in /  1014.8 hPa NE 4 mph /  6.4 km/h 14 mph /  22.5 km/h 49 % 0 in /  0.0 mm
20:02 84.9 °F /  29.4 °C 63.7 °F /  17.6 °C 30 in /  1015.1 hPa NNE 8 mph /  12.9 km/h 14 mph /  22.5 km/h 49 % 0 in /  0.0 mm
20:07 84.6 °F /  29.2 °C 62.8 °F /  17.1 °C 30 in /  1015.1 hPa NE 8 mph /  12.9 km/h 14 mph /  22.5 km/h 48 % 0 in /  0.0 mm
20:12 84.6 °F /  29.2 °C 63.3 °F /  17.4 °C 30 in /  1015.5 hPa ENE 1 mph /  1.6 km/h 11 mph /  17.7 km/h 49 % 0 in /  0.0 mm
20:17 84.4 °F /  29.1 °C 63.1 °F /  17.3 °C 30 in /  1015.5 hPa NNW 4 mph /  6.4 km/h 11 mph /  17.7 km/h 49 % 0 in /  0.0 mm
20:22 84.4 °F /  29.1 °C 63.1 °F /  17.3 °C 30 in /  1015.1 hPa NE 8 mph /  12.9 km/h 11 mph /  17.7 km/h 49 % 0 in /  0.0 mm
20:27 84.4 °F /  29.1 °C 63.1 °F /  17.3 °C 30 in /  1015.1 hPa NE 3 mph /  4.8 km/h 10 mph /  16.1 km/h 49 % 0 in /  0.0 mm
20:32 84.4 °F /  29.1 °C 63.1 °F /  17.3 °C 30 in /  1015.5 hPa NNE 9 mph /  14.5 km/h 10 mph /  16.1 km/h 49 % 0 in /  0.0 mm
20:37 84.4 °F /  29.1 °C 63.1 °F /  17.3 °C 30 in /  1015.5 hPa NNE 3 mph /  4.8 km/h 10 mph /  16.1 km/h 49 % 0 in /  0.0 mm
20:42 84 °F /  28.9 °C 62.8 °F /  17.1 °C 30 in /  1015.8 hPa North 2 mph /  3.2 km/h 10 mph /  16.1 km/h 49 % 0 in /  0.0 mm
20:47 83.8 °F /  28.8 °C 62.6 °F /  17.0 °C 30 in /  1015.8 hPa NE 6 mph /  9.7 km/h 10 mph /  16.1 km/h 49 % 0 in /  0.0 mm
20:52 83.5 °F /  28.6 °C 62.2 °F /  16.8 °C 30 in /  1015.8 hPa North 6 mph /  9.7 km/h 7 mph /  11.3 km/h 49 % 0 in /  0.0 mm
20:57 83.1 °F /  28.4 °C 62.6 °F /  17.0 °C 30 in /  1015.8 hPa NNE 8 mph /  12.9 km/h 8 mph /  12.9 km/h 50 % 0 in /  0.0 mm
21:02 82.8 °F /  28.2 °C 62.8 °F /  17.1 °C 30 in /  1015.8 hPa NNE 6 mph /  9.7 km/h 8 mph /  12.9 km/h 51 % 0 in /  0.0 mm
21:12 82.4 °F /  28.0 °C 63 °F /  17.2 °C 30 in /  1015.8 hPa NNE 3 mph /  4.8 km/h 9 mph /  14.5 km/h 52 % 0 in /  0.0 mm
21:17 82 °F /  27.8 °C 62.6 °F /  17.0 °C 30 in /  1016.1 hPa North 1 mph /  1.6 km/h 9 mph /  14.5 km/h 52 % 0 in /  0.0 mm
21:22 81.9 °F /  27.7 °C 62.4 °F /  16.9 °C 30 in /  1016.1 hPa Calm   9 mph /  14.5 km/h 52 % 0 in /  0.0 mm
21:27 81.9 °F /  27.7 °C 63 °F /  17.2 °C 30 in /  1016.5 hPa Calm   6 mph /  9.7 km/h 53 % 0 in /  0.0 mm
21:32 81.3 °F /  27.4 °C 63.1 °F /  17.3 °C 30 in /  1016.5 hPa WNW 2 mph /  3.2 km/h 2 mph /  3.2 km/h 54 % 0 in /  0.0 mm
21:37 81 °F /  27.2 °C 63.3 °F /  17.4 °C 30 in /  1016.5 hPa Calm   2 mph /  3.2 km/h 55 % 0 in /  0.0 mm
21:42 80.4 °F /  26.9 °C 63.9 °F /  17.7 °C 30.1 in /  1017.5 hPa SW 11 mph /  17.7 km/h 11 mph /  17.7 km/h 57 % 0 in /  0.0 mm
21:47 78.4 °F /  25.8 °C 60.4 °F /  15.8 °C 30.1 in /  1017.5 hPa SW 12 mph /  19.3 km/h 25 mph /  40.2 km/h 54 % 0 in /  0.0 mm
21:52 77.4 °F /  25.2 °C 60.4 °F /  15.8 °C 30.1 in /  1017.8 hPa SW 7 mph /  11.3 km/h 25 mph /  40.2 km/h 56 % 0 in /  0.0 mm
21:57 76.3 °F /  24.6 °C 59.9 °F /  15.5 °C 30.1 in /  1017.5 hPa SSW 5 mph /  8.0 km/h 25 mph /  40.2 km/h 57 % 0 in /  0.0 mm
22:02 75.7 °F /  24.3 °C 59.9 °F /  15.5 °C 30.1 in /  1017.5 hPa SSW 2 mph /  3.2 km/h 25 mph /  40.2 km/h 58 % 0 in /  0.0 mm
22:07 75.7 °F /  24.3 °C 59 °F /  15.0 °C 30.1 in /  1017.5 hPa SW 9 mph /  14.5 km/h 22 mph /  35.4 km/h 56 % 0 in /  0.0 mm
22:12 75.9 °F /  24.4 °C 58.6 °F /  14.8 °C 30.1 in /  1017.5 hPa SSW 9 mph /  14.5 km/h 16 mph /  25.7 km/h 55 % 0 in /  0.0 mm
22:17 75.2 °F /  24.0 °C 59.4 °F /  15.2 °C 30.1 in /  1017.5 hPa WSW 7 mph /  11.3 km/h 14 mph /  22.5 km/h 58 % 0 in /  0.0 mm
22:22 74.7 °F /  23.7 °C 60.3 °F /  15.7 °C 30.1 in /  1017.5 hPa SW 4 mph /  6.4 km/h 14 mph /  22.5 km/h 61 % 0 in /  0.0 mm
22:27 74.1 °F /  23.4 °C 60.3 °F /  15.7 °C 30.1 in /  1017.5 hPa SE 2 mph /  3.2 km/h 14 mph /  22.5 km/h 62 % 0 in /  0.0 mm
22:32 73.8 °F /  23.2 °C 60.4 °F /  15.8 °C 30.1 in /  1017.5 hPa Calm   12 mph /  19.3 km/h 63 % 0 in /  0.0 mm
22:37 73.6 °F /  23.1 °C 60.3 °F /  15.7 °C 30 in /  1017.2 hPa East 1 mph /  1.6 km/h 7 mph /  11.3 km/h 63 % 0 in /  0.0 mm
22:42 73.6 °F /  23.1 °C 60.6 °F /  15.9 °C 30 in /  1017.2 hPa East 1 mph /  1.6 km/h 3 mph /  4.8 km/h 64 % 0 in /  0.0 mm
22:52 72.7 °F /  22.6 °C 61.5 °F /  16.4 °C 30 in /  1017.2 hPa NE 2 mph /  3.2 km/h 3 mph /  4.8 km/h 68 % 0 in /  0.0 mm
22:57 71.8 °F /  22.1 °C 62.2 °F /  16.8 °C 30 in /  1017.2 hPa ENE 5 mph /  8.0 km/h 5 mph /  8.0 km/h 72 % 0 in /  0.0 mm
23:02 70.7 °F /  21.5 °C 62.4 °F /  16.9 °C 30 in /  1016.8 hPa NE 2 mph /  3.2 km/h 5 mph /  8.0 km/h 75 % 0.01 in /  0.3 mm
23:07 70.3 °F /  21.3 °C 62.4 °F /  16.9 °C 30 in /  1017.2 hPa WSW 1 mph /  1.6 km/h 5 mph /  8.0 km/h 76 % 0.02 in /  0.5 mm
23:12 70 °F /  21.1 °C 62.8 °F /  17.1 °C 30 in /  1017.2 hPa NW 1 mph /  1.6 km/h 5 mph /  8.0 km/h 78 % 0.02 in /  0.5 mm
23:17 69.4 °F /  20.8 °C 63.7 °F /  17.6 °C 30 in /  1017.2 hPa NNW 3 mph /  4.8 km/h 3 mph /  4.8 km/h 82 % 0.03 in /  0.8 mm
23:22 68.9 °F /  20.5 °C 63.1 °F /  17.3 °C 30 in /  1016.8 hPa WSW 3 mph /  4.8 km/h 4 mph /  6.4 km/h 82 % 0.04 in /  1.0 mm
23:27 68.7 °F /  20.4 °C 63 °F /  17.2 °C 30 in /  1016.5 hPa North 1 mph /  1.6 km/h 4 mph /  6.4 km/h 82 % 0.05 in /  1.3 mm
23:32 68.5 °F /  20.3 °C 63.9 °F /  17.7 °C 30 in /  1016.5 hPa NNE 1 mph /  1.6 km/h 6 mph /  9.7 km/h 85 % 0.05 in /  1.3 mm
23:37 68 °F /  20.0 °C 63 °F /  17.2 °C 30 in /  1016.1 hPa NNE 2 mph /  3.2 km/h 6 mph /  9.7 km/h 84 % 0.06 in /  1.5 mm
23:42 68.2 °F /  20.1 °C 63.5 °F /  17.5 °C 30 in /  1016.1 hPa Calm   6 mph /  9.7 km/h 85 % 0.06 in /  1.5 mm
23:47 67.8 °F /  19.9 °C 63.9 °F /  17.7 °C 30 in /  1016.1 hPa Calm   5 mph /  8.0 km/h 87 % 0.06 in /  1.5 mm
23:52 67.6 °F /  19.8 °C 63.7 °F /  17.6 °C 30 in /  1016.5 hPa Calm   5 mph /  8.0 km/h 87 % 0.06 in /  1.5 mm
23:57 67.5 °F /  19.7 °C 64 °F /  17.8 °C 30 in /  1016.1 hPa ENE 1 mph /  1.6 km/h 3 mph /  4.8 km/h 89 % 0.06 in /  1.5 mm
Meteo18
Compliments of Weather Underground - 4 mb

Script developed by  Jim McMurry - jmcmurry@mwt.net Adapted for the template by  Wim van der Kuil - Leuven-Template.eu

You find our weather info also at:

European Weather Network

Weather Underground

Equipment we use:

Weather-station
Davis Vue

Weather-program
Meteohub

Weather-server
Raspberry PI 2 B+

Provider
1 and 1

Davis Vue

Meteohub

Raspberry PI 2 B+

1 and 1